createdAt,value
2017-08-10T00:00:16.536Z,0
2017-08-10T00:01:25.387Z,0
2017-08-10T00:02:34.551Z,0
2017-08-10T00:03:43.398Z,0
2017-08-10T00:04:52.252Z,0
2017-08-10T00:06:01.424Z,0
2017-08-10T00:07:10.282Z,0
2017-08-10T00:08:19.132Z,0
2017-08-10T00:09:28.316Z,0
2017-08-10T00:10:37.175Z,0
2017-08-10T00:11:46.024Z,0
2017-08-10T00:12:54.874Z,0
2017-08-10T00:14:04.047Z,0
2017-08-10T00:15:12.897Z,0
2017-08-10T00:16:21.748Z,0
2017-08-10T00:17:30.613Z,0
2017-08-10T00:18:39.459Z,0
2017-08-10T00:19:48.315Z,0
2017-08-10T00:20:57.479Z,0
2017-08-10T00:22:06.338Z,0
2017-08-10T00:23:15.189Z,0
2017-08-10T00:24:24.038Z,0
2017-08-10T00:25:32.901Z,0
2017-08-10T00:26:41.753Z,0
2017-08-10T00:27:50.928Z,0
2017-08-10T00:28:59.778Z,0
2017-08-10T00:30:08.947Z,0
2017-08-10T00:31:17.797Z,0
2017-08-10T00:32:26.644Z,0
2017-08-10T00:33:35.500Z,0
2017-08-10T00:34:44.349Z,0
2017-08-10T00:35:53.207Z,0
2017-08-10T00:37:02.054Z,0
2017-08-10T00:38:10.962Z,0
2017-08-10T00:39:19.830Z,0
2017-08-10T00:40:28.996Z,0
2017-08-10T00:41:38.167Z,0
2017-08-10T00:42:47.022Z,0
2017-08-10T00:43:55.868Z,0
2017-08-10T00:45:04.719Z,0
2017-08-10T00:46:13.576Z,0
2017-08-10T00:47:22.423Z,0
2017-08-10T00:48:31.278Z,0
2017-08-10T00:49:40.126Z,0
2017-08-10T00:50:48.976Z,0
2017-08-10T00:51:57.823Z,0
2017-08-10T00:53:06.679Z,0
2017-08-10T00:54:15.529Z,0
2017-08-10T00:55:24.470Z,0
2017-08-10T00:56:33.401Z,0
2017-08-10T00:57:42.304Z,0
2017-08-10T00:58:51.211Z,0
2017-08-10T01:00:00.115Z,0
2017-08-10T01:01:09.012Z,0
2017-08-10T01:02:17.917Z,0
2017-08-10T01:03:26.822Z,0
2017-08-10T01:04:35.737Z,0
2017-08-10T01:05:44.636Z,0
2017-08-10T01:06:53.545Z,0
2017-08-10T01:08:02.454Z,0
2017-08-10T01:09:11.364Z,0
2017-08-10T01:10:20.267Z,0
2017-08-10T01:11:29.175Z,0
2017-08-10T01:12:38.077Z,0
2017-08-10T01:13:46.977Z,0
2017-08-10T01:14:55.876Z,0
2017-08-10T01:16:05.103Z,0
2017-08-10T01:17:14.015Z,0
2017-08-10T01:18:22.908Z,0
2017-08-10T01:19:31.824Z,0
2017-08-10T01:20:40.770Z,0
2017-08-10T01:21:49.676Z,0
2017-08-10T01:22:58.578Z,0
2017-08-10T01:24:07.489Z,0
2017-08-10T01:25:16.383Z,0
2017-08-10T01:26:25.294Z,0
2017-08-10T01:27:34.529Z,0
2017-08-10T01:28:43.433Z,0
2017-08-10T01:29:52.341Z,0
2017-08-10T01:31:01.247Z,0
2017-08-10T01:32:10.472Z,0
2017-08-10T01:33:19.374Z,0
2017-08-10T01:34:28.282Z,0
2017-08-10T01:35:37.185Z,0
2017-08-10T01:36:46.095Z,0
2017-08-10T01:37:54.994Z,0
2017-08-10T01:39:03.910Z,0
2017-08-10T01:40:12.809Z,0
2017-08-10T01:41:21.714Z,0
2017-08-10T01:42:30.613Z,0
2017-08-10T01:43:39.513Z,0
2017-08-10T01:44:48.409Z,0
2017-08-10T01:45:57.314Z,0
2017-08-10T01:47:06.217Z,0
2017-08-10T01:48:15.117Z,0
2017-08-10T01:49:24.030Z,0
2017-08-10T01:50:32.959Z,0
2017-08-10T01:51:41.856Z,0
2017-08-10T01:52:50.755Z,0
2017-08-10T01:53:59.662Z,0
2017-08-10T01:55:08.564Z,0
2017-08-10T01:56:17.464Z,0
2017-08-10T01:57:26.381Z,0
2017-08-10T01:58:35.281Z,0
2017-08-10T01:59:44.188Z,0
2017-08-10T02:00:53.089Z,0
2017-08-10T02:02:01.996Z,0
2017-08-10T02:03:10.901Z,0
2017-08-10T02:04:20.122Z,0
2017-08-10T02:05:29.032Z,0
2017-08-10T02:06:37.944Z,0
2017-08-10T02:07:46.844Z,0
2017-08-10T02:08:55.742Z,0
2017-08-10T02:10:04.647Z,0
2017-08-10T02:11:13.549Z,0
2017-08-10T02:12:22.452Z,0
2017-08-10T02:13:31.353Z,0
2017-08-10T02:14:40.264Z,0
2017-08-10T02:15:49.161Z,0
2017-08-10T02:16:58.073Z,0
2017-08-10T02:18:06.980Z,0
2017-08-10T02:19:15.881Z,0
2017-08-10T02:20:24.782Z,0
2017-08-10T02:21:33.695Z,0
2017-08-10T02:22:42.919Z,0
2017-08-10T02:23:51.819Z,0
2017-08-10T02:25:00.718Z,0
2017-08-10T02:26:09.617Z,0
2017-08-10T02:27:18.526Z,0
2017-08-10T02:28:27.445Z,0
2017-08-10T02:29:36.666Z,0
2017-08-10T02:30:45.563Z,0
2017-08-10T02:31:54.473Z,0
2017-08-10T02:33:03.372Z,0
2017-08-10T02:34:12.283Z,0
2017-08-10T02:35:21.185Z,0
2017-08-10T02:36:30.094Z,0
2017-08-10T02:37:38.992Z,0
2017-08-10T02:38:48.233Z,0
2017-08-10T02:39:57.133Z,0
2017-08-10T02:41:06.366Z,0
2017-08-10T02:42:15.274Z,0
2017-08-10T02:43:24.171Z,0
2017-08-10T02:44:33.078Z,0
2017-08-10T02:45:41.992Z,0
2017-08-10T02:46:50.896Z,0
2017-08-10T02:47:59.856Z,0
2017-08-10T02:49:09.094Z,0
2017-08-10T02:50:18.006Z,0
2017-08-10T02:51:26.906Z,0
2017-08-10T02:52:35.818Z,0
2017-08-10T02:53:44.735Z,0
2017-08-10T02:54:53.643Z,0
2017-08-10T02:56:02.550Z,0
2017-08-10T02:57:11.456Z,0
2017-08-10T02:58:20.354Z,0
2017-08-10T02:59:29.261Z,0
2017-08-10T03:00:38.157Z,0
2017-08-10T03:01:47.067Z,0
2017-08-10T03:02:55.976Z,0
2017-08-10T03:04:04.872Z,0
2017-08-10T03:05:14.094Z,0
2017-08-10T03:06:22.995Z,0
2017-08-10T03:07:31.900Z,0
2017-08-10T03:08:40.803Z,0
2017-08-10T03:09:50.033Z,0
2017-08-10T03:10:58.934Z,0
2017-08-10T03:12:08.175Z,0
2017-08-10T03:13:17.080Z,0
2017-08-10T03:14:25.990Z,0
2017-08-10T03:15:35.218Z,0
2017-08-10T03:16:44.131Z,0
2017-08-10T03:17:53.039Z,0
2017-08-10T03:19:02.280Z,0
2017-08-10T03:20:11.181Z,0
2017-08-10T03:21:20.084Z,0
2017-08-10T03:22:28.985Z,0
2017-08-10T03:23:37.889Z,0
2017-08-10T03:24:46.793Z,0
2017-08-10T03:25:55.698Z,0
2017-08-10T03:27:04.604Z,0
2017-08-10T03:28:13.506Z,0
2017-08-10T03:29:22.730Z,0
2017-08-10T03:30:31.965Z,0
2017-08-10T03:31:41.192Z,0
2017-08-10T03:32:50.414Z,0
2017-08-10T03:33:59.321Z,0
2017-08-10T03:35:08.219Z,0
2017-08-10T03:36:17.128Z,0
2017-08-10T03:37:26.037Z,4
2017-08-10T03:38:34.941Z,4
2017-08-10T03:39:43.853Z,4
2017-08-10T03:40:52.756Z,4
2017-08-10T03:42:01.655Z,4
2017-08-10T03:43:10.567Z,0
2017-08-10T03:44:19.477Z,4
2017-08-10T03:45:28.376Z,4
2017-08-10T03:46:37.607Z,4
2017-08-10T03:47:46.502Z,4
2017-08-10T03:48:55.414Z,8
2017-08-10T03:50:04.319Z,4
2017-08-10T03:51:13.224Z,8
2017-08-10T03:52:22.122Z,8
2017-08-10T03:53:31.357Z,4
2017-08-10T03:54:40.256Z,8
2017-08-10T03:55:49.476Z,8
2017-08-10T03:56:58.378Z,8
2017-08-10T03:58:07.306Z,8
2017-08-10T03:59:16.215Z,8
2017-08-10T04:00:25.116Z,12
2017-08-10T04:01:34.023Z,8
2017-08-10T04:02:42.918Z,12
2017-08-10T04:03:51.825Z,12
2017-08-10T04:05:00.734Z,16
2017-08-10T04:06:09.974Z,16
2017-08-10T04:07:18.887Z,16
2017-08-10T04:08:27.789Z,16
2017-08-10T04:09:36.685Z,16
2017-08-10T04:10:45.592Z,20
2017-08-10T04:11:54.496Z,16
2017-08-10T04:13:03.408Z,20
2017-08-10T04:14:12.310Z,20
2017-08-10T04:15:21.216Z,24
2017-08-10T04:16:30.119Z,24
2017-08-10T04:17:39.339Z,24
2017-08-10T04:18:48.245Z,24
2017-08-10T04:19:57.467Z,20
2017-08-10T04:21:06.372Z,28
2017-08-10T04:22:15.274Z,28
2017-08-10T04:23:24.502Z,32
2017-08-10T04:24:33.406Z,32
2017-08-10T04:25:42.306Z,36
2017-08-10T04:26:51.202Z,36
2017-08-10T04:28:00.113Z,36
2017-08-10T04:29:09.023Z,36
2017-08-10T04:30:17.925Z,36
2017-08-10T04:31:26.828Z,36
2017-08-10T04:32:35.729Z,44
2017-08-10T04:33:44.957Z,44
2017-08-10T04:34:53.856Z,44
2017-08-10T04:36:02.778Z,44
2017-08-10T04:37:11.692Z,48
2017-08-10T04:38:20.603Z,48
2017-08-10T04:39:29.503Z,56
2017-08-10T04:40:38.402Z,56
2017-08-10T04:41:47.311Z,56
2017-08-10T04:42:56.228Z,52
2017-08-10T04:44:05.463Z,44
2017-08-10T04:45:14.365Z,40
2017-08-10T04:46:23.600Z,40
2017-08-10T04:47:32.507Z,44
2017-08-10T04:48:41.739Z,48
2017-08-10T04:49:50.972Z,52
2017-08-10T04:50:59.887Z,56
2017-08-10T04:52:08.798Z,60
2017-08-10T04:53:17.699Z,64
2017-08-10T04:54:26.599Z,68
2017-08-10T04:55:35.820Z,72
2017-08-10T04:56:44.733Z,76
2017-08-10T04:57:53.635Z,80
2017-08-10T04:59:02.865Z,80
2017-08-10T05:00:11.768Z,84
2017-08-10T05:01:20.998Z,80
2017-08-10T05:02:29.895Z,80
2017-08-10T05:03:38.804Z,84
2017-08-10T05:04:48.032Z,84
2017-08-10T05:05:57.265Z,88
2017-08-10T05:07:06.164Z,88
2017-08-10T05:08:15.064Z,80
2017-08-10T05:09:23.971Z,76
2017-08-10T05:10:32.878Z,72
2017-08-10T05:11:41.780Z,68
2017-08-10T05:12:50.678Z,68
2017-08-10T05:13:59.603Z,72
2017-08-10T05:15:08.520Z,80
2017-08-10T05:16:17.427Z,88
2017-08-10T05:17:26.325Z,96
2017-08-10T05:18:35.237Z,104
2017-08-10T05:19:44.136Z,116
2017-08-10T05:20:53.372Z,116
2017-08-10T05:22:02.265Z,112
2017-08-10T05:23:11.165Z,108
2017-08-10T05:24:20.385Z,108
2017-08-10T05:25:29.295Z,100
2017-08-10T05:26:38.206Z,92
2017-08-10T05:27:47.115Z,88
2017-08-10T05:28:56.008Z,84
2017-08-10T05:30:04.912Z,84
2017-08-10T05:31:13.817Z,84
2017-08-10T05:32:22.726Z,88
2017-08-10T05:33:31.633Z,92
2017-08-10T05:34:40.850Z,100
2017-08-10T05:35:49.758Z,112
2017-08-10T05:36:58.665Z,116
2017-08-10T05:38:07.889Z,116
2017-08-10T05:39:17.109Z,112
2017-08-10T05:40:26.010Z,108
2017-08-10T05:41:34.920Z,112
2017-08-10T05:42:43.832Z,116
2017-08-10T05:43:52.766Z,124
2017-08-10T05:45:01.989Z,128
2017-08-10T05:46:11.552Z,128
2017-08-10T05:47:20.451Z,128
2017-08-10T05:48:29.353Z,124
2017-08-10T05:49:38.260Z,120
2017-08-10T05:50:47.193Z,116
2017-08-10T05:51:56.106Z,112
2017-08-10T05:53:05.018Z,112
2017-08-10T05:54:13.927Z,116
2017-08-10T05:55:22.825Z,124
2017-08-10T05:56:32.052Z,128
2017-08-10T05:57:41.273Z,132
2017-08-10T05:58:50.176Z,136
2017-08-10T05:59:59.075Z,128
2017-08-10T06:01:07.983Z,128
2017-08-10T06:02:16.913Z,120
2017-08-10T06:03:25.812Z,124
2017-08-10T06:04:34.727Z,124
2017-08-10T06:05:43.629Z,132
2017-08-10T06:06:52.527Z,132
2017-08-10T06:08:01.428Z,132
2017-08-10T06:09:10.329Z,132
2017-08-10T06:10:19.232Z,128
2017-08-10T06:11:28.161Z,128
2017-08-10T06:12:37.060Z,124
2017-08-10T06:13:45.967Z,132
2017-08-10T06:14:54.869Z,140
2017-08-10T06:16:03.777Z,148
2017-08-10T06:17:12.681Z,156
2017-08-10T06:18:21.588Z,144
2017-08-10T06:19:30.490Z,128
2017-08-10T06:20:39.395Z,108
2017-08-10T06:21:48.309Z,96
2017-08-10T06:22:57.533Z,88
2017-08-10T06:24:06.432Z,88
2017-08-10T06:25:15.346Z,100
2017-08-10T06:26:24.256Z,112
2017-08-10T06:27:33.158Z,128
2017-08-10T06:28:42.067Z,140
2017-08-10T06:29:50.974Z,152
2017-08-10T06:30:59.877Z,156
2017-08-10T06:32:08.784Z,176
2017-08-10T06:33:17.694Z,196
2017-08-10T06:34:26.917Z,216
2017-08-10T06:35:35.857Z,232
2017-08-10T06:36:44.758Z,232
2017-08-10T06:37:53.654Z,232
2017-08-10T06:39:02.560Z,228
2017-08-10T06:40:11.463Z,220
2017-08-10T06:41:20.369Z,216
2017-08-10T06:42:29.274Z,212
2017-08-10T06:43:38.184Z,216
2017-08-10T06:44:47.088Z,224
2017-08-10T06:45:56.012Z,216
2017-08-10T06:47:05.246Z,212
2017-08-10T06:48:14.149Z,212
2017-08-10T06:49:23.382Z,216
2017-08-10T06:50:32.280Z,216
2017-08-10T06:51:41.510Z,220
2017-08-10T06:52:50.412Z,220
2017-08-10T06:53:59.322Z,216
2017-08-10T06:55:08.222Z,208
2017-08-10T06:56:17.451Z,188
2017-08-10T06:57:26.350Z,168
2017-08-10T06:58:35.253Z,156
2017-08-10T06:59:44.153Z,152
2017-08-10T07:00:53.056Z,152
2017-08-10T07:02:01.963Z,160
2017-08-10T07:03:10.856Z,168
2017-08-10T07:04:19.764Z,184
2017-08-10T07:05:28.998Z,196
2017-08-10T07:06:37.906Z,204
2017-08-10T07:07:46.830Z,212
2017-08-10T07:08:55.738Z,224
2017-08-10T07:10:04.638Z,240
2017-08-10T07:11:13.871Z,264
2017-08-10T07:12:22.776Z,284
2017-08-10T07:13:31.678Z,296
2017-08-10T07:14:40.581Z,296
2017-08-10T07:15:49.492Z,288
2017-08-10T07:16:58.406Z,284
2017-08-10T07:18:07.313Z,280
2017-08-10T07:19:16.532Z,284
2017-08-10T07:20:25.436Z,280
2017-08-10T07:21:34.668Z,276
2017-08-10T07:22:43.894Z,264
2017-08-10T07:23:53.120Z,252
2017-08-10T07:25:02.015Z,244
2017-08-10T07:26:10.921Z,240
2017-08-10T07:27:19.852Z,244
2017-08-10T07:28:28.764Z,256
2017-08-10T07:29:37.664Z,252
2017-08-10T07:30:46.564Z,248
2017-08-10T07:31:55.468Z,248
2017-08-10T07:33:04.370Z,248
2017-08-10T07:34:13.268Z,252
2017-08-10T07:35:22.187Z,252
2017-08-10T07:36:31.092Z,256
2017-08-10T07:37:39.997Z,276
2017-08-10T07:38:48.897Z,296
2017-08-10T07:39:57.811Z,324
2017-08-10T07:41:06.719Z,360
2017-08-10T07:42:15.619Z,376
2017-08-10T07:43:24.529Z,376
2017-08-10T07:44:33.447Z,388
2017-08-10T07:45:42.351Z,404
2017-08-10T07:46:51.257Z,448
2017-08-10T07:48:00.167Z,464
2017-08-10T07:49:09.078Z,484
2017-08-10T07:50:17.979Z,496
2017-08-10T07:51:26.883Z,492
2017-08-10T07:52:35.810Z,488
2017-08-10T07:53:44.710Z,492
2017-08-10T07:54:53.614Z,496
2017-08-10T07:56:02.896Z,504
2017-08-10T07:57:11.795Z,508
2017-08-10T07:58:20.704Z,504
2017-08-10T07:59:29.619Z,512
2017-08-10T08:00:38.523Z,512
2017-08-10T08:01:47.429Z,492
2017-08-10T08:02:56.336Z,476
2017-08-10T08:04:05.244Z,464
2017-08-10T08:05:14.153Z,456
2017-08-10T08:06:23.063Z,444
2017-08-10T08:07:31.960Z,444
2017-08-10T08:08:40.912Z,440
2017-08-10T08:09:49.811Z,432
2017-08-10T08:10:58.718Z,420
2017-08-10T08:12:07.628Z,412
2017-08-10T08:13:16.541Z,408
2017-08-10T08:14:25.455Z,408
2017-08-10T08:15:34.359Z,388
2017-08-10T08:16:43.280Z,360
2017-08-10T08:17:52.184Z,336
2017-08-10T08:19:01.102Z,312
2017-08-10T08:20:10.376Z,300
2017-08-10T08:21:19.612Z,292
2017-08-10T08:22:28.833Z,300
2017-08-10T08:23:37.753Z,320
2017-08-10T08:24:46.651Z,344
2017-08-10T08:25:55.561Z,364
2017-08-10T08:27:04.489Z,384
2017-08-10T08:28:13.398Z,404
2017-08-10T08:29:22.297Z,428
2017-08-10T08:30:31.198Z,440
2017-08-10T08:31:40.103Z,444
2017-08-10T08:32:49.010Z,440
2017-08-10T08:33:57.915Z,432
2017-08-10T08:35:06.818Z,436
2017-08-10T08:36:15.728Z,444
2017-08-10T08:37:24.632Z,452
2017-08-10T08:38:33.533Z,460
2017-08-10T08:39:42.441Z,468
2017-08-10T08:40:51.345Z,468
2017-08-10T08:42:00.249Z,460
2017-08-10T08:43:09.160Z,452
2017-08-10T08:44:18.068Z,452
2017-08-10T08:45:27.291Z,448
2017-08-10T08:46:36.196Z,452
2017-08-10T08:47:45.105Z,464
2017-08-10T08:48:54.343Z,500
2017-08-10T08:50:03.585Z,516
2017-08-10T08:51:12.493Z,500
2017-08-10T08:52:21.398Z,504
2017-08-10T08:53:30.667Z,500
2017-08-10T08:54:39.573Z,480
2017-08-10T08:55:48.476Z,456
2017-08-10T08:56:57.388Z,452
2017-08-10T08:58:06.287Z,452
2017-08-10T08:59:15.196Z,456
2017-08-10T09:00:24.094Z,468
2017-08-10T09:01:33.000Z,468
2017-08-10T09:02:41.912Z,460
2017-08-10T09:03:50.821Z,456
2017-08-10T09:04:59.722Z,472
2017-08-10T09:06:08.958Z,492
2017-08-10T09:07:17.868Z,508
2017-08-10T09:08:26.779Z,520
2017-08-10T09:09:35.998Z,568
2017-08-10T09:10:44.903Z,600
2017-08-10T09:11:53.814Z,612
2017-08-10T09:13:02.722Z,604
2017-08-10T09:14:11.626Z,576
2017-08-10T09:15:20.527Z,580
2017-08-10T09:16:29.439Z,612
2017-08-10T09:17:38.342Z,648
2017-08-10T09:18:47.253Z,664
2017-08-10T09:19:56.489Z,640
2017-08-10T09:21:05.396Z,608
2017-08-10T09:22:14.299Z,580
2017-08-10T09:23:23.209Z,552
2017-08-10T09:24:32.434Z,504
2017-08-10T09:25:41.661Z,460
2017-08-10T09:26:50.569Z,428
2017-08-10T09:27:59.476Z,412
2017-08-10T09:29:08.376Z,420
2017-08-10T09:30:17.286Z,420
2017-08-10T09:31:26.185Z,412
2017-08-10T09:32:35.095Z,416
2017-08-10T09:33:44.334Z,424
2017-08-10T09:34:53.237Z,420
2017-08-10T09:36:02.143Z,404
2017-08-10T09:37:11.047Z,400
2017-08-10T09:38:19.954Z,388
2017-08-10T09:39:28.863Z,372
2017-08-10T09:40:37.759Z,368
2017-08-10T09:41:46.668Z,352
2017-08-10T09:42:55.596Z,348
2017-08-10T09:44:04.496Z,348
2017-08-10T09:45:13.410Z,364
2017-08-10T09:46:22.325Z,392
2017-08-10T09:47:31.226Z,460
2017-08-10T09:48:40.130Z,540
2017-08-10T09:49:49.036Z,612
2017-08-10T09:50:57.936Z,624
2017-08-10T09:52:06.853Z,672
2017-08-10T09:53:15.763Z,704
2017-08-10T09:54:24.681Z,708
2017-08-10T09:55:33.580Z,700
2017-08-10T09:56:42.493Z,680
2017-08-10T09:57:51.422Z,664
2017-08-10T09:59:00.325Z,664
2017-08-10T10:00:09.238Z,664
2017-08-10T10:01:18.146Z,664
2017-08-10T10:02:27.056Z,680
2017-08-10T10:03:35.960Z,692
2017-08-10T10:04:45.189Z,696
2017-08-10T10:05:54.415Z,684
2017-08-10T10:07:03.653Z,668
2017-08-10T10:08:12.556Z,648
2017-08-10T10:09:21.785Z,620
2017-08-10T10:10:30.689Z,584
2017-08-10T10:11:39.599Z,540
2017-08-10T10:12:48.499Z,480
2017-08-10T10:13:57.407Z,452
2017-08-10T10:15:06.318Z,448
2017-08-10T10:16:15.225Z,416
2017-08-10T10:17:24.132Z,404
2017-08-10T10:18:33.037Z,404
2017-08-10T10:19:41.936Z,432
2017-08-10T10:20:50.841Z,448
2017-08-10T10:21:59.750Z,460
2017-08-10T10:23:08.661Z,460
2017-08-10T10:24:17.572Z,504
2017-08-10T10:25:26.494Z,452
2017-08-10T10:26:35.398Z,400
2017-08-10T10:27:44.310Z,360
2017-08-10T10:28:53.219Z,352
2017-08-10T10:30:02.118Z,360
2017-08-10T10:31:11.356Z,364
2017-08-10T10:32:20.257Z,368
2017-08-10T10:33:29.169Z,376
2017-08-10T10:34:38.086Z,420
2017-08-10T10:35:46.987Z,480
2017-08-10T10:36:55.893Z,552
2017-08-10T10:38:04.803Z,608
2017-08-10T10:39:13.706Z,660
2017-08-10T10:40:22.618Z,720
2017-08-10T10:41:31.544Z,712
2017-08-10T10:42:40.449Z,708
2017-08-10T10:43:49.672Z,692
2017-08-10T10:44:58.583Z,704
2017-08-10T10:46:07.484Z,660
2017-08-10T10:47:16.392Z,620
2017-08-10T10:48:25.296Z,584
2017-08-10T10:49:34.528Z,528
2017-08-10T10:50:43.432Z,448
2017-08-10T10:51:52.339Z,372
2017-08-10T10:53:01.237Z,336
2017-08-10T10:54:10.463Z,280
2017-08-10T10:55:19.370Z,172
2017-08-10T10:56:28.287Z,300
2017-08-10T10:57:37.193Z,300
2017-08-10T10:58:46.096Z,304
2017-08-10T10:59:54.993Z,316
2017-08-10T11:01:03.897Z,328
2017-08-10T11:02:12.811Z,304
2017-08-10T11:03:21.726Z,288
2017-08-10T11:04:30.627Z,300
2017-08-10T11:05:39.845Z,288
2017-08-10T11:06:48.753Z,312
2017-08-10T11:07:57.662Z,340
2017-08-10T11:09:06.611Z,360
2017-08-10T11:10:15.512Z,396
2017-08-10T11:11:24.420Z,460
2017-08-10T11:12:33.321Z,528
2017-08-10T11:13:42.228Z,556
2017-08-10T11:14:51.133Z,572
2017-08-10T11:16:00.359Z,572
2017-08-10T11:17:09.268Z,548
2017-08-10T11:18:18.169Z,504
2017-08-10T11:19:27.068Z,480
2017-08-10T11:20:36.304Z,464
2017-08-10T11:21:45.214Z,484
2017-08-10T11:22:54.115Z,508
2017-08-10T11:24:03.024Z,544
2017-08-10T11:25:11.932Z,568
2017-08-10T11:26:20.841Z,600
2017-08-10T11:27:29.741Z,644
2017-08-10T11:28:38.649Z,684
2017-08-10T11:29:47.549Z,656
2017-08-10T11:30:56.455Z,708
2017-08-10T11:32:05.357Z,792
2017-08-10T11:33:14.260Z,784
2017-08-10T11:34:23.163Z,720
2017-08-10T11:35:32.078Z,660
2017-08-10T11:36:41.005Z,644
2017-08-10T11:37:49.911Z,628
2017-08-10T11:38:58.816Z,596
2017-08-10T11:40:07.723Z,608
2017-08-10T11:41:16.968Z,624
2017-08-10T11:42:25.873Z,632
2017-08-10T11:43:34.784Z,648
2017-08-10T11:44:43.863Z,664
2017-08-10T11:45:52.811Z,680
2017-08-10T11:47:01.707Z,684
2017-08-10T11:48:10.622Z,684
2017-08-10T11:49:19.526Z,668
2017-08-10T11:50:28.429Z,644
2017-08-10T11:51:37.324Z,600
2017-08-10T11:52:46.227Z,532
2017-08-10T11:53:55.130Z,496
2017-08-10T11:55:04.037Z,572
2017-08-10T11:56:13.602Z,624
2017-08-10T11:57:22.503Z,588
2017-08-10T11:58:31.417Z,564
2017-08-10T11:59:40.313Z,516
2017-08-10T12:00:49.216Z,508
2017-08-10T12:01:58.119Z,504
2017-08-10T12:03:07.042Z,520
2017-08-10T12:04:15.941Z,552
2017-08-10T12:05:24.852Z,628
2017-08-10T12:06:33.756Z,716
2017-08-10T12:07:42.658Z,772
2017-08-10T12:08:51.567Z,740
2017-08-10T12:10:00.473Z,660
2017-08-10T12:11:09.378Z,732
2017-08-10T12:12:18.283Z,704
2017-08-10T12:13:27.521Z,640
2017-08-10T12:14:36.427Z,636
2017-08-10T12:15:45.335Z,632
2017-08-10T12:16:54.243Z,644
2017-08-10T12:18:03.496Z,628
2017-08-10T12:19:12.395Z,584
2017-08-10T12:20:21.305Z,612
2017-08-10T12:21:30.212Z,640
2017-08-10T12:22:39.120Z,648
2017-08-10T12:23:48.025Z,652
2017-08-10T12:24:56.930Z,676
2017-08-10T12:26:05.827Z,672
2017-08-10T12:27:14.735Z,708
2017-08-10T12:28:23.965Z,656
2017-08-10T12:29:32.878Z,692
2017-08-10T12:30:41.785Z,684
2017-08-10T12:31:50.690Z,792
2017-08-10T12:32:59.918Z,768
2017-08-10T12:34:09.147Z,800
2017-08-10T12:35:18.064Z,712
2017-08-10T12:36:26.974Z,564
2017-08-10T12:37:35.876Z,580
2017-08-10T12:38:44.781Z,620
2017-08-10T12:39:53.685Z,620
2017-08-10T12:41:02.596Z,568
2017-08-10T12:42:11.818Z,524
2017-08-10T12:43:21.053Z,492
2017-08-10T12:44:29.962Z,500
2017-08-10T12:45:38.866Z,476
2017-08-10T12:46:47.765Z,516
2017-08-10T12:47:56.669Z,532
2017-08-10T12:49:05.575Z,480
2017-08-10T12:50:14.482Z,528
2017-08-10T12:51:23.387Z,488
2017-08-10T12:52:32.295Z,588
2017-08-10T12:53:41.195Z,624
2017-08-10T12:54:50.110Z,664
2017-08-10T12:55:59.020Z,724
2017-08-10T12:57:07.927Z,688
2017-08-10T12:58:16.837Z,668
2017-08-10T12:59:25.741Z,720
2017-08-10T13:00:34.649Z,708
2017-08-10T13:01:43.547Z,692
2017-08-10T13:02:52.456Z,668
2017-08-10T13:04:01.358Z,696
2017-08-10T13:05:10.266Z,716
2017-08-10T13:06:19.168Z,660
2017-08-10T13:07:28.080Z,740
2017-08-10T13:08:36.992Z,660
2017-08-10T13:09:45.900Z,740
2017-08-10T13:10:54.810Z,764
2017-08-10T13:12:03.717Z,776
2017-08-10T13:13:12.621Z,652
2017-08-10T13:14:21.535Z,724
2017-08-10T13:15:30.442Z,724
2017-08-10T13:16:39.355Z,720
2017-08-10T13:17:48.262Z,752
2017-08-10T13:18:57.161Z,752
2017-08-10T13:20:06.062Z,728
2017-08-10T13:21:14.963Z,800
2017-08-10T13:22:23.872Z,824
2017-08-10T13:23:32.773Z,816
2017-08-10T13:24:41.668Z,804
2017-08-10T13:25:50.574Z,808
2017-08-10T13:26:59.804Z,772
2017-08-10T13:28:09.029Z,736
2017-08-10T13:29:17.932Z,812
2017-08-10T13:30:26.839Z,808
2017-08-10T13:31:35.746Z,820
2017-08-10T13:32:44.970Z,832
2017-08-10T13:33:53.873Z,844
2017-08-10T13:35:02.776Z,856
2017-08-10T13:36:11.684Z,816
2017-08-10T13:37:20.588Z,780
2017-08-10T13:38:29.499Z,768
2017-08-10T13:39:38.722Z,724
2017-08-10T13:40:47.629Z,756
2017-08-10T13:41:56.533Z,704
2017-08-10T13:43:05.433Z,732
2017-08-10T13:44:14.345Z,844
2017-08-10T13:45:23.254Z,828
2017-08-10T13:46:32.156Z,868
2017-08-10T13:47:41.055Z,940
2017-08-10T13:48:49.964Z,908
2017-08-10T13:49:58.864Z,876
2017-08-10T13:51:07.780Z,876
2017-08-10T13:52:16.680Z,864
2017-08-10T13:53:25.590Z,856
2017-08-10T13:54:34.497Z,768
2017-08-10T13:55:43.405Z,800
2017-08-10T13:56:52.350Z,844
2017-08-10T13:58:01.582Z,908
2017-08-10T13:59:10.477Z,964
2017-08-10T14:00:19.392Z,960
2017-08-10T14:01:28.305Z,924
2017-08-10T14:02:37.217Z,888
2017-08-10T14:03:46.123Z,888
2017-08-10T14:04:55.026Z,916
2017-08-10T14:06:03.931Z,924
2017-08-10T14:07:12.834Z,932
2017-08-10T14:08:21.743Z,1032
2017-08-10T14:09:30.640Z,1064
2017-08-10T14:10:39.543Z,984
2017-08-10T14:11:48.442Z,920
2017-08-10T14:12:57.675Z,944
2017-08-10T14:14:06.577Z,996
2017-08-10T14:15:15.805Z,1084
2017-08-10T14:16:24.706Z,1180
2017-08-10T14:17:33.613Z,1096
2017-08-10T14:18:42.510Z,1108
2017-08-10T14:19:51.418Z,1164
2017-08-10T14:21:00.322Z,1192
2017-08-10T14:22:09.877Z,1160
2017-08-10T14:23:18.779Z,968
2017-08-10T14:24:27.691Z,940
2017-08-10T14:25:36.593Z,880
2017-08-10T14:26:45.496Z,784
2017-08-10T14:27:54.403Z,616
2017-08-10T14:29:03.310Z,544
2017-08-10T14:30:12.213Z,488
2017-08-10T14:31:21.120Z,476
2017-08-10T14:32:30.021Z,476
2017-08-10T14:33:38.947Z,504
2017-08-10T14:34:47.866Z,504
2017-08-10T14:35:56.801Z,496
2017-08-10T14:37:05.704Z,472
2017-08-10T14:38:14.613Z,460
2017-08-10T14:39:23.518Z,460
2017-08-10T14:40:32.424Z,480
2017-08-10T14:41:41.332Z,536
2017-08-10T14:42:50.238Z,616
2017-08-10T14:43:59.142Z,708
2017-08-10T14:45:08.051Z,720
2017-08-10T14:46:16.960Z,760
2017-08-10T14:47:26.186Z,744
2017-08-10T14:48:35.097Z,724
2017-08-10T14:49:44.014Z,756
2017-08-10T14:50:52.945Z,772
2017-08-10T14:52:01.849Z,808
2017-08-10T14:53:10.753Z,832
2017-08-10T14:54:19.656Z,824
2017-08-10T14:55:28.894Z,832
2017-08-10T14:56:37.800Z,908
2017-08-10T14:57:46.714Z,924
2017-08-10T14:58:55.626Z,1072
2017-08-10T15:00:04.532Z,756
2017-08-10T15:01:13.445Z,672
2017-08-10T15:02:22.359Z,632
2017-08-10T15:03:31.596Z,668
2017-08-10T15:04:40.497Z,708
2017-08-10T15:05:49.413Z,728
2017-08-10T15:06:58.326Z,716
2017-08-10T15:08:07.223Z,656
2017-08-10T15:09:16.452Z,632
2017-08-10T15:10:25.376Z,720
2017-08-10T15:11:34.276Z,784
2017-08-10T15:12:43.189Z,776
2017-08-10T15:13:52.089Z,652
2017-08-10T15:15:00.993Z,556
2017-08-10T15:16:09.902Z,464
2017-08-10T15:17:18.807Z,432
2017-08-10T15:18:28.039Z,392
2017-08-10T15:19:36.952Z,364
2017-08-10T15:20:45.862Z,364
2017-08-10T15:21:54.771Z,376
2017-08-10T15:23:03.686Z,396
2017-08-10T15:24:12.592Z,440
2017-08-10T15:25:21.821Z,476
2017-08-10T15:26:30.723Z,488
2017-08-10T15:27:39.633Z,484
2017-08-10T15:28:48.858Z,516
2017-08-10T15:29:57.757Z,552
2017-08-10T15:31:06.693Z,556
2017-08-10T15:32:15.596Z,544
2017-08-10T15:33:24.511Z,520
2017-08-10T15:34:33.414Z,464
2017-08-10T15:35:42.648Z,424
2017-08-10T15:36:51.554Z,400
2017-08-10T15:38:01.104Z,404
2017-08-10T15:39:10.009Z,476
2017-08-10T15:40:18.915Z,572
2017-08-10T15:41:27.832Z,664
2017-08-10T15:42:36.754Z,700
2017-08-10T15:43:45.697Z,708
2017-08-10T15:44:54.604Z,744
2017-08-10T15:46:03.511Z,764
2017-08-10T15:47:12.410Z,704
2017-08-10T15:48:21.320Z,672
2017-08-10T15:49:30.221Z,636
2017-08-10T15:50:39.131Z,644
2017-08-10T15:51:48.038Z,640
2017-08-10T15:52:57.274Z,552
2017-08-10T15:54:06.172Z,500
2017-08-10T15:55:15.072Z,512
2017-08-10T15:56:23.982Z,572
2017-08-10T15:57:32.896Z,524
2017-08-10T15:58:41.794Z,512
2017-08-10T15:59:50.704Z,512
2017-08-10T16:00:59.941Z,576
2017-08-10T16:02:08.844Z,672
2017-08-10T16:03:18.074Z,656
2017-08-10T16:04:26.977Z,688
2017-08-10T16:05:35.884Z,748
2017-08-10T16:06:44.793Z,788
2017-08-10T16:07:53.703Z,756